createdAt,value
2023-02-19T01:15:49.796Z,94
2023-02-19T01:20:50.098Z,94
2023-02-19T01:25:49.448Z,94
2023-02-19T01:30:49.683Z,94
2023-02-19T01:35:49.928Z,94
2023-02-19T01:40:49.293Z,94
2023-02-19T01:45:49.800Z,94
2023-02-19T01:50:49.275Z,94
2023-02-19T01:55:49.625Z,94
2023-02-19T02:00:49.910Z,94
2023-02-19T02:05:49.157Z,94
2023-02-19T02:10:49.464Z,94
2023-02-19T02:15:49.817Z,94
2023-02-19T02:20:49.304Z,94
2023-02-19T02:25:49.764Z,94
2023-02-19T02:30:49.295Z,94
2023-02-19T02:35:49.966Z,94
2023-02-19T02:40:49.192Z,94
2023-02-19T02:45:49.578Z,94
2023-02-19T02:50:49.793Z,94
2023-02-19T02:55:49.594Z,94
2023-02-19T03:00:49.465Z,94
2023-02-19T03:05:53.533Z,94
2023-02-19T03:10:49.856Z,94
2023-02-19T03:15:50.039Z,94
2023-02-19T03:20:49.257Z,94
2023-02-19T03:25:49.412Z,94
2023-02-19T03:30:49.548Z,94
2023-02-19T03:35:49.461Z,94
2023-02-19T03:40:49.451Z,94
2023-02-19T03:45:49.831Z,94
2023-02-19T03:50:49.241Z,94
2023-02-19T03:55:49.561Z,94
2023-02-19T04:00:49.444Z,94
2023-02-19T04:05:49.587Z,94
2023-02-19T04:10:49.768Z,94
2023-02-19T04:15:49.810Z,94
2023-02-19T04:20:49.293Z,94
2023-02-19T04:25:49.886Z,94
2023-02-19T04:30:49.632Z,94
2023-02-19T04:35:49.881Z,94
2023-02-19T04:40:50.182Z,94
2023-02-19T04:45:49.890Z,94
2023-02-19T04:50:50.086Z,94
2023-02-19T04:55:49.265Z,94
2023-02-19T05:00:50.084Z,94
2023-02-19T05:05:49.506Z,94
2023-02-19T05:10:49.455Z,94
2023-02-19T05:15:49.701Z,94
2023-02-19T05:20:49.989Z,94
2023-02-19T05:25:49.531Z,94
2023-02-19T05:30:49.830Z,94
2023-02-19T05:35:50.188Z,94
2023-02-19T05:40:49.344Z,94
2023-02-19T05:45:49.885Z,94
2023-02-19T05:50:49.984Z,94
2023-02-19T05:55:50.278Z,94
2023-02-19T06:00:49.666Z,94
2023-02-19T06:05:49.768Z,94
2023-02-19T06:10:50.110Z,94
2023-02-19T06:15:49.325Z,94
2023-02-19T06:20:49.825Z,94
2023-02-19T06:25:50.130Z,94
2023-02-19T06:30:51.756Z,94
2023-02-19T06:35:50.037Z,94
2023-02-19T06:40:50.299Z,94
2023-02-19T06:45:49.574Z,94
2023-02-19T06:50:49.691Z,94
2023-02-19T06:55:49.908Z,94
2023-02-19T07:00:49.672Z,94
2023-02-19T07:05:49.916Z,94
2023-02-19T07:10:50.214Z,94
2023-02-19T07:15:52.505Z,94
2023-02-19T07:20:49.792Z,94
2023-02-19T07:25:50.197Z,94
2023-02-19T07:30:50.463Z,94
2023-02-19T07:35:49.906Z,94
2023-02-19T07:40:49.509Z,94
2023-02-19T07:45:49.496Z,95
2023-02-19T07:50:49.817Z,95
2023-02-19T07:55:50.021Z,95
2023-02-19T08:00:49.547Z,95
2023-02-19T08:05:49.829Z,95
2023-02-19T08:10:50.245Z,95
2023-02-19T08:15:49.450Z,95
2023-02-19T08:20:49.774Z,95
2023-02-19T08:25:50.034Z,95
2023-02-19T08:30:50.391Z,95
2023-02-19T08:35:49.590Z,95
2023-02-19T08:40:49.922Z,95
2023-02-19T08:45:50.372Z,95
2023-02-19T09:25:49.605Z,94
2023-02-19T09:30:50.190Z,94
2023-02-19T09:35:50.150Z,94
2023-02-19T09:40:50.356Z,94
2023-02-19T09:45:49.547Z,94
2023-02-19T09:50:49.906Z,94
2023-02-19T09:55:50.300Z,94
2023-02-19T10:00:49.767Z,94
2023-02-19T10:05:49.737Z,88
2023-02-19T10:10:50.352Z,88
2023-02-19T10:15:50.107Z,87
2023-02-19T10:20:49.473Z,87
2023-02-19T10:25:49.534Z,87
2023-02-19T10:30:49.935Z,87
2023-02-19T11:15:50.080Z,73
2023-02-19T11:20:50.375Z,73
2023-02-19T11:25:49.698Z,74
2023-02-19T11:30:49.800Z,74
2023-02-19T11:35:49.999Z,74
2023-02-19T11:40:50.298Z,74
2023-02-19T11:45:49.853Z,72
2023-02-19T11:50:50.064Z,72
2023-02-19T11:55:50.294Z,71
2023-02-19T12:00:49.483Z,71
2023-02-19T12:05:49.582Z,73
2023-02-19T12:10:49.962Z,73
2023-02-19T12:15:50.153Z,74
2023-02-19T12:20:50.336Z,74
2023-02-19T12:25:49.627Z,73
2023-02-19T12:30:49.767Z,73
2023-02-19T12:35:50.295Z,72
2023-02-19T12:40:50.486Z,72
2023-02-19T12:45:49.954Z,72
2023-02-19T12:50:50.359Z,72
2023-02-19T12:55:49.587Z,72
2023-02-19T13:00:50.814Z,72
2023-02-19T13:05:50.097Z,71
2023-02-19T13:10:50.725Z,71
2023-02-19T13:15:50.038Z,72
2023-02-19T13:20:50.327Z,72
2023-02-19T13:25:49.581Z,72
2023-02-19T13:30:50.489Z,72
2023-02-19T13:35:49.804Z,71
2023-02-19T13:40:50.034Z,71
2023-02-19T13:45:50.277Z,71
2023-02-19T13:50:49.588Z,71
2023-02-19T13:55:49.845Z,69
2023-02-19T14:00:50.212Z,69
2023-02-19T14:05:49.703Z,68
2023-02-19T14:10:50.053Z,68
2023-02-19T14:15:49.898Z,70
2023-02-19T14:20:50.278Z,70
2023-02-19T14:25:50.244Z,70
2023-02-19T14:30:50.264Z,70
2023-02-19T14:35:49.610Z,72
2023-02-19T14:40:50.002Z,72
2023-02-19T14:45:50.207Z,73
2023-02-19T14:50:50.577Z,73
2023-02-19T14:55:50.232Z,74
2023-02-19T15:00:50.541Z,74
2023-02-19T15:05:50.403Z,73
2023-02-19T15:10:50.493Z,73
2023-02-19T15:15:50.146Z,72
2023-02-19T15:20:50.531Z,72
2023-02-19T15:25:50.088Z,73
2023-02-19T15:30:50.306Z,73
2023-02-19T15:35:49.798Z,74
2023-02-19T15:40:49.633Z,74
2023-02-19T15:45:50.048Z,75
2023-02-19T15:50:50.344Z,75
2023-02-19T15:55:50.333Z,76
2023-02-19T16:00:49.862Z,76
2023-02-19T16:05:49.860Z,77
2023-02-19T16:10:50.520Z,77
2023-02-19T16:15:50.437Z,79
2023-02-19T16:20:50.273Z,79
2023-02-19T16:25:50.617Z,80
2023-02-19T16:30:49.956Z,80
2023-02-19T16:35:50.494Z,81
2023-02-19T16:40:50.002Z,81
2023-02-19T16:45:50.537Z,81
2023-02-19T16:50:49.764Z,81
2023-02-19T16:55:50.063Z,80
2023-02-19T17:00:50.484Z,80
2023-02-19T17:05:50.202Z,81
2023-02-19T17:10:50.506Z,81
2023-02-19T17:15:49.644Z,81
2023-02-19T17:20:49.890Z,81
2023-02-19T17:25:50.170Z,81
2023-02-19T17:30:50.455Z,81
2023-02-19T17:35:50.541Z,82
2023-02-19T17:40:49.788Z,82
2023-02-19T17:45:50.104Z,82
2023-02-19T17:50:50.382Z,82
2023-02-19T17:55:49.720Z,82
2023-02-19T18:00:49.909Z,82
2023-02-19T18:05:50.199Z,82
2023-02-19T18:10:50.534Z,82
2023-02-19T18:15:49.700Z,81
2023-02-19T18:20:49.998Z,81
2023-02-19T18:25:50.265Z,81
2023-02-19T18:30:51.158Z,81
2023-02-19T18:35:50.570Z,82
2023-02-19T18:40:49.925Z,82
2023-02-19T18:45:50.293Z,82
2023-02-19T18:50:50.521Z,82
2023-02-19T18:55:50.648Z,82
2023-02-19T19:00:49.968Z,82
2023-02-19T19:05:50.118Z,83
2023-02-19T19:10:50.458Z,83
2023-02-19T19:15:49.882Z,83
2023-02-19T19:20:50.689Z,83
2023-02-19T19:25:50.512Z,83
2023-02-19T19:30:49.955Z,83
2023-02-19T19:35:50.069Z,83
2023-02-19T19:40:50.291Z,83
2023-02-19T19:45:50.498Z,83
2023-02-19T19:50:49.888Z,83
2023-02-19T19:55:50.196Z,84
2023-02-19T20:00:50.393Z,84
2023-02-19T20:05:50.581Z,84
2023-02-19T20:10:49.914Z,84
2023-02-19T20:15:50.166Z,84
2023-02-19T20:20:50.420Z,84
2023-02-19T20:25:50.610Z,84
2023-02-19T20:30:50.157Z,84
2023-02-19T20:35:50.620Z,85
2023-02-19T20:40:49.989Z,85
2023-02-19T20:45:50.211Z,85
2023-02-19T20:50:50.507Z,85
2023-02-19T20:55:49.822Z,86
2023-02-19T21:00:50.076Z,86
2023-02-19T21:05:50.540Z,86
2023-02-19T21:10:50.405Z,86
2023-02-19T21:15:50.799Z,86
2023-02-19T21:20:50.579Z,86
2023-02-19T21:25:49.795Z,87
2023-02-19T21:30:50.110Z,87
2023-02-19T21:35:50.136Z,87
2023-02-19T21:40:50.159Z,87
2023-02-19T21:45:50.578Z,87
2023-02-19T21:50:50.597Z,87
2023-02-19T21:55:59.073Z,87
2023-02-19T22:00:50.692Z,87
2023-02-19T22:05:50.397Z,87
2023-02-19T22:10:50.646Z,87
2023-02-19T22:15:49.879Z,87
2023-02-19T22:20:50.169Z,87
2023-02-19T22:25:50.417Z,87
2023-02-19T22:30:50.915Z,87
2023-02-19T22:35:50.245Z,87
2023-02-19T22:40:50.612Z,87
2023-02-19T22:45:49.985Z,87
2023-02-19T22:50:50.408Z,87
2023-02-19T22:55:50.753Z,87
2023-02-19T23:00:50.134Z,87
2023-02-19T23:05:50.037Z,87
2023-02-19T23:10:50.174Z,87
2023-02-19T23:15:50.679Z,87
2023-02-19T23:20:50.025Z,87
2023-02-19T23:25:50.256Z,87
2023-02-19T23:30:50.997Z,87
2023-02-19T23:35:50.392Z,87
2023-02-19T23:40:50.131Z,87
2023-02-19T23:45:50.460Z,87
2023-02-19T23:55:50.527Z,87
